createdAt,value
2024-02-04T00:03:51.668Z,12.10
2024-02-04T00:08:55.520Z,15.00
2024-02-04T00:13:57.513Z,13.40
2024-02-04T00:18:59.544Z,13.30
2024-02-04T00:24:01.846Z,16.40
2024-02-04T00:29:03.881Z,15.70
2024-02-04T00:34:06.937Z,14.80
2024-02-04T00:39:18.218Z,20.60
2024-02-04T00:44:20.135Z,16.00
2024-02-04T00:49:22.163Z,14.60
2024-02-04T00:54:24.336Z,14.70
2024-02-04T00:59:26.286Z,11.60
2024-02-04T01:04:29.122Z,12.30
2024-02-04T01:09:31.169Z,7.30
2024-02-04T01:14:33.259Z,8.00
2024-02-04T01:19:35.498Z,6.20
2024-02-04T01:24:37.472Z,8.80
2024-02-04T01:29:39.527Z,10.00
2024-02-04T01:34:41.532Z,10.60
2024-02-04T01:39:43.497Z,12.10
2024-02-04T01:44:45.464Z,7.40
2024-02-04T01:49:47.451Z,5.40
2024-02-04T01:54:51.817Z,5.70
2024-02-04T01:59:56.088Z,7.70
2024-02-04T02:10:00.452Z,5.40
2024-02-04T02:15:11.123Z,4.40
2024-02-04T02:25:26.168Z,3.30
2024-02-04T02:30:28.200Z,1.80
2024-02-04T02:35:30.300Z,3.10
2024-02-04T02:40:43.099Z,2.90
2024-02-04T02:45:46.678Z,3.40
2024-02-04T02:50:48.902Z,3.40
2024-02-04T02:55:50.796Z,2.70
2024-02-04T03:00:52.896Z,6.30
2024-02-04T03:05:55.099Z,2.90
2024-02-04T03:10:57.160Z,1.10
2024-02-04T03:15:59.212Z,2.10
2024-02-04T03:21:01.337Z,1.80
2024-02-04T03:26:04.112Z,3.40
2024-02-04T03:31:06.393Z,3.50
2024-02-04T03:36:08.722Z,5.50
2024-02-04T03:41:10.871Z,3.20
2024-02-04T03:46:16.809Z,4.80
2024-02-04T03:51:20.430Z,7.80
2024-02-04T04:01:25.365Z,6.30
2024-02-04T04:06:27.538Z,9.00
2024-02-04T04:11:29.635Z,5.60
2024-02-04T04:16:31.614Z,5.80
2024-02-04T04:21:33.625Z,9.60
2024-02-04T04:26:35.574Z,10.20
2024-02-04T04:31:37.458Z,5.80
2024-02-04T04:36:39.467Z,6.20
2024-02-04T04:41:43.429Z,3.80
2024-02-04T04:46:45.344Z,4.30
2024-02-04T04:51:50.144Z,5.40
2024-02-04T04:56:52.079Z,4.90
2024-02-04T05:01:53.979Z,4.40
2024-02-04T05:06:56.232Z,3.10
2024-02-04T05:11:58.332Z,5.80
2024-02-04T05:17:00.519Z,3.40
2024-02-04T05:22:04.576Z,3.70
2024-02-04T05:27:06.545Z,2.60
2024-02-04T05:32:09.177Z,4.20
2024-02-04T05:37:11.156Z,2.80
2024-02-04T05:42:13.049Z,2.80
2024-02-04T05:47:15.070Z,3.20
2024-02-04T05:52:17.067Z,1.50
2024-02-04T05:57:19.345Z,2.00
2024-02-04T06:02:21.439Z,2.40
2024-02-04T06:07:23.700Z,2.70
2024-02-04T06:12:25.866Z,2.40
2024-02-04T06:17:28.056Z,3.30
2024-02-04T06:22:30.069Z,1.70
2024-02-04T06:27:32.398Z,3.00
2024-02-04T06:32:34.435Z,3.90
2024-02-04T06:37:36.508Z,1.80
2024-02-04T06:42:38.569Z,4.00
2024-02-04T06:47:40.482Z,4.50
2024-02-04T06:52:44.116Z,3.30
2024-02-04T06:57:45.999Z,4.20
2024-02-04T07:02:48.312Z,3.60
2024-02-04T07:07:53.833Z,6.50
2024-02-04T07:12:55.854Z,5.20
2024-02-04T07:17:57.980Z,3.60
2024-02-04T07:22:59.998Z,6.30
2024-02-04T07:28:02.460Z,6.00
2024-02-04T07:33:05.153Z,5.40
2024-02-04T07:38:07.072Z,5.40
2024-02-04T07:43:09.376Z,3.50
2024-02-04T07:48:12.010Z,6.80
2024-02-04T07:53:14.765Z,4.80
2024-02-04T07:58:17.303Z,4.10
2024-02-04T08:03:19.258Z,6.40
2024-02-04T08:08:21.250Z,1.90
2024-02-04T08:13:23.204Z,5.30
2024-02-04T08:18:25.191Z,8.70
2024-02-04T08:23:27.269Z,6.20
2024-02-04T08:28:29.456Z,6.00
2024-02-04T08:33:31.443Z,6.40
2024-02-04T08:38:33.518Z,5.00
2024-02-04T08:43:35.550Z,9.60
2024-02-04T08:48:38.457Z,6.00
2024-02-04T08:53:40.594Z,10.40
2024-02-04T08:58:42.692Z,6.30
2024-02-04T09:03:44.732Z,7.80
2024-02-04T09:08:46.971Z,6.90
2024-02-04T09:13:49.156Z,7.30
2024-02-04T09:18:51.118Z,8.70
2024-02-04T09:23:53.301Z,10.30
2024-02-04T09:28:55.417Z,10.90
2024-02-04T09:33:57.498Z,10.70
2024-02-04T09:38:59.591Z,13.30
2024-02-04T09:44:04.442Z,10.40
2024-02-04T09:49:07.062Z,9.40
2024-02-04T09:54:12.220Z,7.40
2024-02-04T09:59:14.498Z,4.30
2024-02-04T10:04:19.771Z,4.30
2024-02-04T10:09:22.497Z,5.40
2024-02-04T10:14:25.270Z,6.00
2024-02-04T10:19:27.703Z,7.10
2024-02-04T10:24:30.542Z,5.50
2024-02-04T10:29:32.787Z,8.50
2024-02-04T10:34:38.693Z,8.60
2024-02-04T10:39:40.788Z,6.60
2024-02-04T10:44:46.985Z,5.10
2024-02-04T10:49:53.434Z,7.90
2024-02-04T10:54:57.144Z,8.30
2024-02-04T11:00:00.761Z,6.70
2024-02-04T11:05:05.361Z,9.50
2024-02-04T11:10:08.234Z,11.10
2024-02-04T11:15:14.335Z,10.50
2024-02-04T11:20:45.243Z,17.00
2024-02-04T11:25:50.828Z,8.30
2024-02-04T11:30:53.000Z,9.50
2024-02-04T11:36:05.591Z,10.40
2024-02-04T11:41:09.400Z,9.30
2024-02-04T11:46:21.844Z,9.40
2024-02-04T11:51:26.080Z,12.10
2024-02-04T11:56:28.787Z,18.00
2024-02-04T12:01:32.930Z,23.80
2024-02-04T12:06:35.037Z,16.80
2024-02-04T12:11:39.068Z,27.90
2024-02-04T12:16:41.366Z,22.90
2024-02-04T12:21:43.459Z,19.70
2024-02-04T12:26:47.372Z,21.20
2024-02-04T12:31:49.351Z,13.40
2024-02-04T12:37:02.270Z,16.40
2024-02-04T12:42:04.789Z,17.20
2024-02-04T12:47:06.968Z,12.70
2024-02-04T12:52:09.592Z,10.10
2024-02-04T12:57:23.238Z,12.90
2024-02-04T13:02:25.205Z,12.10
2024-02-04T13:07:27.711Z,17.60
2024-02-04T13:12:29.851Z,14.40
2024-02-04T13:17:31.766Z,11.80
2024-02-04T13:22:34.058Z,14.00
2024-02-04T13:27:36.285Z,9.20
2024-02-04T13:32:38.277Z,6.70
2024-02-04T13:37:41.406Z,7.10
2024-02-04T13:42:44.396Z,6.70
2024-02-04T13:47:46.993Z,5.40
2024-02-04T13:52:49.019Z,5.00
2024-02-04T13:57:51.047Z,4.50
2024-02-04T14:02:53.288Z,6.30
2024-02-04T14:07:59.430Z,5.30
2024-02-04T14:13:02.112Z,5.60
2024-02-04T14:18:04.494Z,7.30
2024-02-04T14:23:06.786Z,6.50
2024-02-04T14:28:08.695Z,5.50
2024-02-04T14:33:11.797Z,5.30
2024-02-04T14:38:13.920Z,6.50
2024-02-04T14:43:16.641Z,7.10
2024-02-04T14:48:18.603Z,5.70
2024-02-04T14:53:20.898Z,8.30
2024-02-04T14:58:24.193Z,7.90
2024-02-04T15:03:26.287Z,10.80
2024-02-04T15:08:28.269Z,10.00
2024-02-04T15:13:33.816Z,3.20
2024-02-04T15:18:36.901Z,2.60
2024-02-04T15:23:39.177Z,3.50
2024-02-04T15:28:42.443Z,3.30
2024-02-04T15:33:47.674Z,3.90
2024-02-04T15:38:49.686Z,10.80
2024-02-04T15:43:51.997Z,3.50
2024-02-04T15:48:54.994Z,5.80
2024-02-04T15:53:57.584Z,6.60
2024-02-04T15:59:09.281Z,14.40
2024-02-04T16:04:12.104Z,18.10
2024-02-04T16:09:15.733Z,23.40
2024-02-04T16:14:18.033Z,17.50
2024-02-04T16:19:20.506Z,15.50
2024-02-04T16:24:22.873Z,11.90
2024-02-04T16:29:29.258Z,10.40
2024-02-04T16:34:34.921Z,8.90
2024-02-04T16:39:38.151Z,9.70
2024-02-04T16:44:40.429Z,9.20
2024-02-04T16:49:42.442Z,24.20
2024-02-04T16:54:45.424Z,18.30
2024-02-04T16:59:49.701Z,27.60
2024-02-04T17:04:54.370Z,12.70
2024-02-04T17:09:57.567Z,9.60
2024-02-04T17:15:00.117Z,11.30
2024-02-04T17:20:17.728Z,15.60
2024-02-04T17:25:23.929Z,8.40
2024-02-04T17:30:26.643Z,6.10
2024-02-04T17:35:31.618Z,5.00
2024-02-04T17:40:35.109Z,4.90
2024-02-04T17:45:37.310Z,10.30
2024-02-04T17:50:40.844Z,6.80
2024-02-04T17:55:43.008Z,11.50
2024-02-04T18:00:45.452Z,4.80
2024-02-04T18:05:49.590Z,5.00
2024-02-04T18:10:51.615Z,5.80
2024-02-04T18:15:55.269Z,9.10
2024-02-04T18:20:57.220Z,5.40
2024-02-04T18:25:59.037Z,7.10
2024-02-04T18:31:00.962Z,9.20
2024-02-04T18:36:04.093Z,6.00
2024-02-04T18:41:13.857Z,6.10
2024-02-04T18:46:16.878Z,7.90
2024-02-04T18:51:20.044Z,9.70
2024-02-04T18:56:23.480Z,8.90
2024-02-04T19:01:36.729Z,6.90
2024-02-04T19:06:42.088Z,8.10
2024-02-04T19:11:44.817Z,10.50
2024-02-04T19:16:51.291Z,12.00
2024-02-04T19:21:56.022Z,10.20
2024-02-04T19:26:57.905Z,4.80
2024-02-04T19:31:59.815Z,7.10
2024-02-04T19:37:01.898Z,8.30
2024-02-04T19:42:04.559Z,9.80
2024-02-04T19:47:06.535Z,9.20
2024-02-04T19:52:08.522Z,5.80
2024-02-04T19:57:10.813Z,6.00
2024-02-04T20:02:13.291Z,5.00
2024-02-04T20:07:15.347Z,4.90
2024-02-04T20:12:18.299Z,6.60
2024-02-04T20:17:20.294Z,9.20
2024-02-04T20:22:22.281Z,8.60
2024-02-04T20:27:24.541Z,5.30
2024-02-04T20:32:27.026Z,5.40
2024-02-04T20:37:30.508Z,7.00
2024-02-04T20:42:35.474Z,3.50
2024-02-04T20:47:37.702Z,5.30
2024-02-04T20:52:40.108Z,4.20
2024-02-04T20:57:44.016Z,7.60
2024-02-04T21:02:46.171Z,3.90
2024-02-04T21:07:48.320Z,2.60
2024-02-04T21:12:50.474Z,2.10
2024-02-04T21:17:52.419Z,1.40
2024-02-04T21:22:54.446Z,1.90
2024-02-04T21:27:57.396Z,9.70
2024-02-04T21:32:59.462Z,2.00
2024-02-04T21:38:01.932Z,2.30
2024-02-04T21:43:03.923Z,1.40
2024-02-04T21:48:08.338Z,1.40
2024-02-04T21:58:15.414Z,0.40
2024-02-04T22:03:17.601Z,4.20
2024-02-04T22:08:19.760Z,2.60
2024-02-04T22:13:21.947Z,0.90
2024-02-04T22:18:24.255Z,1.60
2024-02-04T22:23:26.164Z,1.60
2024-02-04T22:28:28.118Z,4.50
2024-02-04T22:33:30.035Z,4.60
2024-02-04T22:38:33.379Z,4.60
2024-02-04T22:43:37.081Z,2.20
2024-02-04T22:48:39.148Z,3.00
2024-02-04T22:53:41.240Z,2.60
2024-02-04T22:58:43.191Z,4.50
2024-02-04T23:03:45.903Z,5.70
2024-02-04T23:08:47.842Z,6.30
2024-02-04T23:13:49.886Z,5.70
2024-02-04T23:18:51.809Z,8.50
2024-02-04T23:23:53.686Z,6.70
2024-02-04T23:28:56.139Z,5.80
2024-02-04T23:33:58.339Z,3.30
2024-02-04T23:39:00.149Z,3.90
2024-02-04T23:44:01.895Z,3.00
2024-02-04T23:49:03.784Z,4.20
2024-02-04T23:54:05.802Z,3.40
2024-02-04T23:59:08.172Z,2.10
